createdAt,value
2022-11-19T00:01:13.832Z,6.20
2022-11-19T00:03:41.552Z,6.20
2022-11-19T00:06:09.832Z,6.20
2022-11-19T00:08:36.873Z,6.10
2022-11-19T00:11:42.594Z,6.10
2022-11-19T00:14:12.428Z,6.10
2022-11-19T00:16:39.750Z,6.20
2022-11-19T00:19:06.790Z,6.10
2022-11-19T00:21:33.432Z,6.20
2022-11-19T00:24:00.209Z,6.20
2022-11-19T00:26:27.026Z,6.20
2022-11-19T00:28:55.378Z,6.20
2022-11-19T00:31:22.485Z,6.20
2022-11-19T00:33:50.589Z,6.20
2022-11-19T00:36:17.770Z,6.10
2022-11-19T00:38:44.413Z,6.00
2022-11-19T00:41:11.304Z,6.10
2022-11-19T00:43:47.804Z,6.10
2022-11-19T00:46:29.660Z,6.00
2022-11-19T00:48:58.308Z,5.80
2022-11-19T00:51:27.920Z,5.90
2022-11-19T00:53:55.164Z,5.80
2022-11-19T00:56:24.297Z,5.80
2022-11-19T00:58:51.555Z,5.70
2022-11-19T01:01:20.153Z,5.70
2022-11-19T01:03:46.938Z,5.60
2022-11-19T01:06:19.142Z,5.70
2022-11-19T01:08:47.791Z,5.60
2022-11-19T01:11:17.294Z,5.70
2022-11-19T01:13:44.045Z,5.70
2022-11-19T01:16:14.582Z,5.70
2022-11-19T01:18:42.944Z,5.50
2022-11-19T01:21:11.527Z,5.40
2022-11-19T01:23:39.615Z,5.40
2022-11-19T01:26:06.452Z,5.40
2022-11-19T01:28:33.801Z,5.60
2022-11-19T01:31:00.744Z,5.60
2022-11-19T01:33:27.845Z,5.50
2022-11-19T01:36:02.636Z,5.60
2022-11-19T01:38:30.302Z,5.60
2022-11-19T01:40:57.441Z,5.50
2022-11-19T01:43:52.130Z,5.30
2022-11-19T01:46:24.051Z,5.30
2022-11-19T01:48:55.272Z,5.20
2022-11-19T01:51:35.505Z,5.10
2022-11-19T01:54:10.995Z,5.10
2022-11-19T01:56:37.734Z,5.10
2022-11-19T01:59:11.117Z,5.20
2022-11-19T02:01:37.770Z,5.00
2022-11-19T02:04:07.023Z,4.90
2022-11-19T02:06:34.221Z,4.90
2022-11-19T02:09:00.852Z,4.90
2022-11-19T02:11:39.319Z,4.90
2022-11-19T02:14:21.745Z,5.00
2022-11-19T02:17:14.519Z,5.00
2022-11-19T02:20:20.254Z,5.00
2022-11-19T02:23:25.750Z,4.90
2022-11-19T02:26:04.630Z,4.80
2022-11-19T02:28:40.136Z,4.60
2022-11-19T02:31:24.153Z,4.80
2022-11-19T02:34:02.117Z,4.70
2022-11-19T02:36:40.933Z,4.80
2022-11-19T02:39:30.819Z,4.70
2022-11-19T02:42:05.229Z,4.80
2022-11-19T02:44:56.268Z,4.70
2022-11-19T02:47:28.905Z,4.80
2022-11-19T02:50:00.910Z,4.80
2022-11-19T02:52:28.590Z,4.70
2022-11-19T02:54:55.392Z,4.60
2022-11-19T02:57:22.039Z,4.60
2022-11-19T03:00:14.736Z,4.60
2022-11-19T03:03:11.388Z,4.60
2022-11-19T03:05:44.235Z,4.50
2022-11-19T03:08:11.133Z,4.50
2022-11-19T03:10:58.069Z,4.50
2022-11-19T03:13:47.794Z,4.50
2022-11-19T03:16:37.738Z,4.50
2022-11-19T03:19:10.398Z,4.50
2022-11-19T03:21:38.862Z,4.50
2022-11-19T03:24:10.955Z,4.50
2022-11-19T03:26:42.720Z,4.40
2022-11-19T03:29:13.279Z,4.40
2022-11-19T03:31:46.783Z,4.40
2022-11-19T03:34:18.284Z,4.30
2022-11-19T03:36:48.108Z,4.30
2022-11-19T03:39:16.552Z,4.20
2022-11-19T03:41:46.563Z,4.20
2022-11-19T03:44:19.740Z,4.20
2022-11-19T03:46:49.922Z,4.20
2022-11-19T03:49:21.837Z,4.20
2022-11-19T03:51:54.016Z,4.10
2022-11-19T03:54:20.802Z,4.00
2022-11-19T03:56:48.912Z,4.00
2022-11-19T03:59:16.760Z,4.00
2022-11-19T04:01:47.094Z,4.00
2022-11-19T04:04:37.173Z,3.90
2022-11-19T04:07:22.104Z,4.00
2022-11-19T04:09:49.452Z,3.90
2022-11-19T04:12:24.423Z,4.00
2022-11-19T04:14:51.420Z,4.00
2022-11-19T04:17:19.216Z,3.90
2022-11-19T04:19:46.772Z,3.80
2022-11-19T04:22:13.384Z,3.80
2022-11-19T04:24:40.058Z,3.70
2022-11-19T04:27:06.677Z,3.70
2022-11-19T04:29:33.379Z,3.60
2022-11-19T04:32:00.094Z,3.60
2022-11-19T04:34:26.812Z,3.60
2022-11-19T04:36:53.446Z,3.60
2022-11-19T04:39:20.350Z,3.40
2022-11-19T04:41:47.258Z,3.40
2022-11-19T04:44:13.843Z,3.40
2022-11-19T04:46:40.508Z,3.50
2022-11-19T04:49:07.160Z,3.50
2022-11-19T04:51:33.750Z,3.40
2022-11-19T04:54:00.422Z,3.40
2022-11-19T04:56:27.156Z,3.30
2022-11-19T04:58:53.804Z,3.30
2022-11-19T05:01:20.957Z,3.20
2022-11-19T05:03:48.514Z,3.20
2022-11-19T05:06:15.149Z,3.10
2022-11-19T05:08:42.006Z,3.00
2022-11-19T05:11:08.723Z,3.10
2022-11-19T05:13:35.450Z,3.10
2022-11-19T05:16:02.286Z,3.10
2022-11-19T05:18:28.972Z,3.10
2022-11-19T05:20:55.720Z,2.90
2022-11-19T05:23:22.408Z,2.90
2022-11-19T05:25:49.104Z,2.90
2022-11-19T05:28:15.804Z,2.80
2022-11-19T05:30:42.407Z,2.70
2022-11-19T05:33:09.208Z,2.70
2022-11-19T05:35:35.881Z,2.70
2022-11-19T05:38:02.585Z,2.60
2022-11-19T05:40:29.202Z,2.60
2022-11-19T05:42:55.779Z,2.50
2022-11-19T05:45:22.609Z,2.60
2022-11-19T05:47:54.688Z,2.60
2022-11-19T05:50:21.343Z,2.60
2022-11-19T05:52:48.045Z,2.60
2022-11-19T05:55:14.794Z,2.60
2022-11-19T05:57:41.423Z,2.60
2022-11-19T06:00:09.217Z,2.50
2022-11-19T06:02:35.865Z,2.50
2022-11-19T06:05:02.683Z,2.50
2022-11-19T06:07:29.387Z,2.60
2022-11-19T06:09:56.034Z,2.50
2022-11-19T06:12:22.939Z,2.40
2022-11-19T06:14:49.585Z,2.50
2022-11-19T06:17:16.292Z,2.40
2022-11-19T06:19:42.906Z,2.50
2022-11-19T06:22:09.965Z,2.50
2022-11-19T06:24:36.716Z,2.50
2022-11-19T06:27:03.466Z,2.40
2022-11-19T06:29:30.118Z,2.40
2022-11-19T06:31:56.828Z,2.30
2022-11-19T06:34:23.398Z,2.40
2022-11-19T06:36:50.865Z,2.40
2022-11-19T06:39:18.471Z,2.40
2022-11-19T06:41:45.447Z,2.50
2022-11-19T06:44:12.040Z,2.40
2022-11-19T06:46:38.827Z,2.40
2022-11-19T06:49:05.878Z,2.30
2022-11-19T06:51:32.977Z,2.40
2022-11-19T06:53:59.628Z,2.40
2022-11-19T06:56:26.270Z,2.40
2022-11-19T06:58:57.026Z,2.40
2022-11-19T07:01:23.689Z,2.30
2022-11-19T07:03:50.444Z,2.40
2022-11-19T07:06:17.065Z,2.40
2022-11-19T07:08:43.668Z,2.40
2022-11-19T07:11:25.768Z,2.40
2022-11-19T07:13:59.777Z,2.40
2022-11-19T07:16:29.957Z,2.30
2022-11-19T07:18:58.515Z,2.20
2022-11-19T07:21:25.286Z,2.30
2022-11-19T07:23:52.177Z,2.30
2022-11-19T07:26:18.862Z,2.30
2022-11-19T07:28:45.460Z,2.20
2022-11-19T07:31:12.185Z,2.20
2022-11-19T07:33:39.169Z,2.30
2022-11-19T07:36:07.935Z,2.30
2022-11-19T07:38:37.096Z,2.30
2022-11-19T07:41:24.763Z,2.30
2022-11-19T07:43:51.419Z,2.20
2022-11-19T07:46:18.160Z,2.20
2022-11-19T07:48:44.785Z,2.20
2022-11-19T07:51:11.633Z,2.30
2022-11-19T07:53:38.362Z,2.30
2022-11-19T07:56:05.293Z,2.20
2022-11-19T07:58:32.054Z,2.30
2022-11-19T08:00:58.682Z,2.30
2022-11-19T08:03:25.310Z,2.30
2022-11-19T08:05:51.945Z,2.30
2022-11-19T08:08:18.554Z,2.20
2022-11-19T08:10:45.247Z,2.30
2022-11-19T08:13:11.834Z,2.30
2022-11-19T08:15:38.443Z,2.30
2022-11-19T08:18:15.705Z,2.20
2022-11-19T08:20:43.921Z,2.20
2022-11-19T08:23:11.917Z,2.20
2022-11-19T08:25:39.193Z,2.30
2022-11-19T08:28:06.138Z,2.20
2022-11-19T08:30:33.813Z,2.10
2022-11-19T08:33:00.660Z,2.10
2022-11-19T08:35:27.547Z,2.20
2022-11-19T08:37:54.260Z,2.30
2022-11-19T08:40:20.960Z,2.20
2022-11-19T08:42:59.808Z,2.30
2022-11-19T08:45:27.334Z,2.40
2022-11-19T08:47:55.266Z,2.40
2022-11-19T08:50:22.647Z,2.40
2022-11-19T08:52:57.188Z,2.40
2022-11-19T08:55:24.864Z,2.50
2022-11-19T08:57:51.495Z,2.40
2022-11-19T09:00:20.101Z,2.30
2022-11-19T09:02:47.212Z,2.30
2022-11-19T09:05:14.788Z,2.30
2022-11-19T09:07:41.810Z,2.30
2022-11-19T09:10:09.806Z,2.30
2022-11-19T09:12:36.650Z,2.30
2022-11-19T09:15:04.413Z,2.30
2022-11-19T09:17:31.356Z,2.30
2022-11-19T09:19:58.019Z,2.30
2022-11-19T09:22:24.678Z,2.30
2022-11-19T09:24:51.414Z,2.40
2022-11-19T09:27:18.125Z,2.40
2022-11-19T09:29:44.755Z,2.30
2022-11-19T09:32:11.506Z,2.30
2022-11-19T09:34:40.630Z,2.40
2022-11-19T09:37:10.876Z,2.40
2022-11-19T09:39:38.244Z,2.50
2022-11-19T09:42:16.998Z,2.40
2022-11-19T09:45:02.178Z,2.30
2022-11-19T09:47:40.197Z,2.50
2022-11-19T09:50:19.488Z,2.40
2022-11-19T09:53:16.877Z,2.50
2022-11-19T09:55:46.648Z,2.50
2022-11-19T09:58:32.381Z,2.50
2022-11-19T10:00:59.592Z,2.40
2022-11-19T10:03:32.825Z,2.40
2022-11-19T10:06:30.601Z,2.50
2022-11-19T10:09:19.238Z,2.40
2022-11-19T10:12:02.738Z,2.40
2022-11-19T10:15:10.900Z,2.30
2022-11-19T10:17:49.537Z,2.30
2022-11-19T10:20:28.457Z,2.20
2022-11-19T10:23:17.540Z,2.30
2022-11-19T10:25:47.190Z,2.40
2022-11-19T10:28:21.931Z,2.50
2022-11-19T10:30:50.975Z,2.50
2022-11-19T10:33:17.670Z,2.60
2022-11-19T10:35:51.628Z,2.60
2022-11-19T10:38:27.090Z,2.70
2022-11-19T10:41:02.563Z,2.70
2022-11-19T10:43:36.881Z,2.70
2022-11-19T10:46:06.176Z,2.70
2022-11-19T10:48:43.257Z,2.70
2022-11-19T10:51:14.010Z,2.80
2022-11-19T10:53:42.425Z,2.80
2022-11-19T10:56:19.567Z,2.80
2022-11-19T10:58:54.269Z,2.80
2022-11-19T11:01:34.046Z,2.70
2022-11-19T11:04:06.931Z,2.80
2022-11-19T11:06:54.666Z,2.80
2022-11-19T11:09:39.478Z,2.90
2022-11-19T11:12:41.156Z,2.80
2022-11-19T11:15:21.319Z,2.80
2022-11-19T11:17:59.541Z,2.70
2022-11-19T11:20:28.975Z,2.60
2022-11-19T11:23:33.231Z,2.60
2022-11-19T11:26:06.795Z,2.60
2022-11-19T11:28:34.383Z,2.50
2022-11-19T11:31:09.309Z,2.40
2022-11-19T11:33:39.291Z,2.40
2022-11-19T11:36:13.717Z,2.40
2022-11-19T11:38:43.617Z,2.60
2022-11-19T11:42:02.412Z,2.60
2022-11-19T11:44:22.785Z,2.60
2022-11-19T11:46:52.370Z,2.70
2022-11-19T11:49:28.211Z,2.50
2022-11-19T11:52:04.916Z,2.60
2022-11-19T11:54:31.670Z,2.60
2022-11-19T11:57:19.388Z,2.60
2022-11-19T11:59:46.313Z,2.60
2022-11-19T12:02:26.951Z,2.60
2022-11-19T12:04:55.655Z,2.70
2022-11-19T12:07:40.462Z,2.60
2022-11-19T12:10:26.117Z,2.70
2022-11-19T12:13:08.804Z,2.60
2022-11-19T12:15:47.567Z,2.50
2022-11-19T12:18:38.261Z,2.60
2022-11-19T12:21:17.007Z,2.80
2022-11-19T12:24:10.923Z,2.60
2022-11-19T12:27:19.799Z,2.60
2022-11-19T12:30:03.548Z,2.60
2022-11-19T12:32:39.680Z,2.40
2022-11-19T12:35:37.377Z,2.50
2022-11-19T12:38:25.506Z,2.60
2022-11-19T12:41:39.973Z,2.60
2022-11-19T12:44:34.460Z,2.70
2022-11-19T12:47:18.287Z,2.70
2022-11-19T12:49:44.951Z,2.70
2022-11-19T12:52:50.437Z,2.50
2022-11-19T12:55:59.430Z,2.60
2022-11-19T12:58:38.784Z,2.60
2022-11-19T13:01:13.655Z,2.70
2022-11-19T13:03:47.771Z,2.70
2022-11-19T13:06:22.322Z,2.50
2022-11-19T13:08:58.161Z,2.50
2022-11-19T13:11:36.556Z,2.50
2022-11-19T13:14:11.821Z,2.50
2022-11-19T13:16:41.243Z,2.50
2022-11-19T13:19:29.358Z,2.40
2022-11-19T13:22:07.395Z,2.60
2022-11-19T13:24:45.476Z,2.50
2022-11-19T13:27:23.011Z,2.60
2022-11-19T13:30:20.447Z,2.60
2022-11-19T13:33:11.712Z,2.50
2022-11-19T13:35:47.199Z,2.60
2022-11-19T13:38:22.698Z,2.60
2022-11-19T13:41:10.926Z,2.60
2022-11-19T13:43:56.169Z,2.60
2022-11-19T13:46:36.941Z,2.60
2022-11-19T13:49:13.898Z,2.60
2022-11-19T13:51:44.648Z,2.50
2022-11-19T13:54:25.520Z,2.40
2022-11-19T13:56:56.157Z,2.40
2022-11-19T13:59:30.090Z,2.50
2022-11-19T14:02:14.623Z,2.60
2022-11-19T14:05:26.131Z,2.50
2022-11-19T14:08:21.835Z,2.50
2022-11-19T14:11:24.413Z,2.50
2022-11-19T14:14:32.986Z,2.50
2022-11-19T14:17:32.313Z,2.40
2022-11-19T14:20:17.536Z,2.40
2022-11-19T14:23:14.288Z,2.40
2022-11-19T14:26:02.546Z,2.30
2022-11-19T14:28:49.954Z,2.30
2022-11-19T14:31:18.924Z,2.30
2022-11-19T14:33:48.319Z,2.30
2022-11-19T14:36:38.124Z,2.30
2022-11-19T14:39:12.549Z,2.30
2022-11-19T14:41:43.884Z,2.30
2022-11-19T14:44:32.705Z,2.30
2022-11-19T14:47:21.940Z,2.40
2022-11-19T14:49:50.566Z,2.40
2022-11-19T14:52:25.129Z,2.40
2022-11-19T14:55:20.176Z,2.40
2022-11-19T14:58:00.712Z,2.50
2022-11-19T15:00:41.334Z,2.50
2022-11-19T15:03:24.033Z,2.50
2022-11-19T15:05:51.147Z,2.30
2022-11-19T15:08:17.920Z,2.20
2022-11-19T15:11:05.422Z,2.20
2022-11-19T15:13:40.725Z,2.30
2022-11-19T15:16:16.901Z,2.30
2022-11-19T15:18:43.475Z,2.30
2022-11-19T15:21:40.290Z,2.20
2022-11-19T15:24:30.650Z,2.20
2022-11-19T15:27:33.953Z,2.30
2022-11-19T15:30:10.129Z,2.20
2022-11-19T15:33:01.202Z,2.30
2022-11-19T15:35:56.851Z,2.30
2022-11-19T15:38:23.507Z,2.30
2022-11-19T15:40:53.243Z,2.30
2022-11-19T15:43:31.096Z,2.30
2022-11-19T15:46:09.648Z,2.30
2022-11-19T15:48:54.989Z,2.20
2022-11-19T15:51:22.032Z,2.20
2022-11-19T15:53:59.850Z,2.20
2022-11-19T15:56:31.891Z,2.30
2022-11-19T15:59:00.274Z,2.30
2022-11-19T16:01:27.259Z,2.20
2022-11-19T16:03:54.056Z,2.20
2022-11-19T16:06:27.180Z,2.20
2022-11-19T16:08:55.546Z,2.20
2022-11-19T16:11:43.796Z,2.20
2022-11-19T16:14:47.768Z,2.20
2022-11-19T16:17:33.441Z,2.20
2022-11-19T16:20:12.497Z,2.20
2022-11-19T16:22:50.086Z,2.20
2022-11-19T16:25:34.884Z,2.20
2022-11-19T16:28:05.615Z,2.20
2022-11-19T16:30:42.473Z,2.20
2022-11-19T16:33:16.307Z,2.10
2022-11-19T16:35:43.779Z,2.10
2022-11-19T16:38:15.993Z,2.10
2022-11-19T16:41:03.779Z,2.20
2022-11-19T16:43:30.714Z,2.20
2022-11-19T16:45:58.162Z,2.30
2022-11-19T16:48:49.261Z,2.20
2022-11-19T16:51:36.815Z,2.20
2022-11-19T16:54:05.906Z,2.20
2022-11-19T16:56:58.999Z,2.20
2022-11-19T16:59:25.910Z,2.20
2022-11-19T17:01:59.892Z,2.20
2022-11-19T17:04:30.603Z,2.20
2022-11-19T17:06:58.935Z,2.20
2022-11-19T17:09:42.265Z,2.20
2022-11-19T17:12:27.424Z,2.20
2022-11-19T17:15:02.634Z,2.20
2022-11-19T17:17:34.330Z,2.20
2022-11-19T17:20:43.730Z,2.10
2022-11-19T17:23:18.332Z,2.10
2022-11-19T17:25:57.101Z,2.10
2022-11-19T17:28:37.996Z,2.10
2022-11-19T17:31:17.900Z,2.10
2022-11-19T17:33:54.766Z,2.10
2022-11-19T17:36:22.383Z,2.10
2022-11-19T17:38:49.652Z,2.10
2022-11-19T17:41:40.526Z,2.10
2022-11-19T17:44:33.550Z,2.10
2022-11-19T17:47:24.244Z,2.10
2022-11-19T17:49:51.884Z,2.20
2022-11-19T17:52:30.336Z,2.20
2022-11-19T17:55:16.802Z,2.20
2022-11-19T17:57:43.666Z,2.20
2022-11-19T18:00:11.066Z,2.20
2022-11-19T18:02:37.925Z,2.30
2022-11-19T18:05:15.102Z,2.30
2022-11-19T18:07:42.052Z,2.30
2022-11-19T18:10:09.403Z,2.10
2022-11-19T18:12:36.225Z,2.20
2022-11-19T18:15:03.348Z,2.30
2022-11-19T18:17:30.041Z,2.30
2022-11-19T18:19:56.832Z,2.30
2022-11-19T18:22:23.623Z,2.20
2022-11-19T18:24:51.789Z,2.10
2022-11-19T18:27:18.510Z,2.20
2022-11-19T18:29:45.257Z,2.20
2022-11-19T18:32:15.236Z,2.20
2022-11-19T18:34:42.259Z,2.20
2022-11-19T18:37:08.966Z,2.10
2022-11-19T18:39:35.599Z,2.30
2022-11-19T18:42:02.365Z,2.20
2022-11-19T18:44:34.868Z,2.20
2022-11-19T18:47:07.180Z,2.20
2022-11-19T18:49:34.942Z,2.10
2022-11-19T18:52:06.215Z,2.10
2022-11-19T18:54:33.955Z,2.20
2022-11-19T18:57:00.931Z,2.20
2022-11-19T18:59:27.649Z,2.10
2022-11-19T19:01:55.916Z,2.20
2022-11-19T19:04:23.174Z,2.30
2022-11-19T19:06:50.232Z,2.30
2022-11-19T19:09:20.190Z,2.30
2022-11-19T19:12:12.528Z,2.30
2022-11-19T19:14:39.930Z,2.30
2022-11-19T19:17:06.533Z,2.20
2022-11-19T19:19:33.242Z,2.30
2022-11-19T19:22:00.491Z,2.30
2022-11-19T19:24:27.335Z,2.30
2022-11-19T19:26:54.064Z,2.10
2022-11-19T19:29:20.910Z,2.10
2022-11-19T19:31:47.805Z,2.10
2022-11-19T19:34:14.604Z,2.20
2022-11-19T19:36:46.487Z,2.10
2022-11-19T19:39:16.959Z,2.20
2022-11-19T19:41:43.848Z,2.10
2022-11-19T19:44:10.948Z,2.10
2022-11-19T19:46:37.640Z,2.10
2022-11-19T19:49:04.353Z,2.10
2022-11-19T19:51:32.502Z,2.10
2022-11-19T19:53:59.419Z,2.10
2022-11-19T19:56:28.143Z,2.10
2022-11-19T19:58:55.617Z,2.10
2022-11-19T20:01:30.682Z,2.20
2022-11-19T20:04:06.131Z,2.20
2022-11-19T20:06:33.481Z,2.20
2022-11-19T20:09:03.210Z,2.10
2022-11-19T20:11:33.698Z,2.00
2022-11-19T20:14:00.398Z,2.10
2022-11-19T20:16:32.562Z,2.10
2022-11-19T20:19:00.536Z,2.00
2022-11-19T20:21:29.490Z,1.90
2022-11-19T20:23:57.428Z,1.90
2022-11-19T20:26:27.813Z,1.80
2022-11-19T20:29:05.579Z,2.00
2022-11-19T20:31:33.603Z,2.00
2022-11-19T20:34:02.034Z,1.80
2022-11-19T20:36:31.068Z,1.80
2022-11-19T20:38:58.791Z,1.70
2022-11-19T20:41:45.424Z,1.70
2022-11-19T20:44:20.082Z,1.80
2022-11-19T20:46:51.765Z,1.90
2022-11-19T20:49:20.881Z,1.90
2022-11-19T20:51:48.121Z,1.90
2022-11-19T20:54:15.258Z,1.90
2022-11-19T20:56:42.246Z,1.90
2022-11-19T20:59:09.773Z,1.80
2022-11-19T21:01:36.686Z,1.90
2022-11-19T21:04:03.865Z,1.90
2022-11-19T21:06:31.029Z,1.90
2022-11-19T21:08:57.750Z,1.80
2022-11-19T21:11:25.188Z,1.80
2022-11-19T21:13:51.909Z,1.70
2022-11-19T21:16:22.087Z,1.70
2022-11-19T21:18:49.296Z,1.80
2022-11-19T21:21:18.273Z,1.90
2022-11-19T21:23:45.492Z,1.80
2022-11-19T21:26:18.159Z,1.80
2022-11-19T21:28:49.115Z,1.80
2022-11-19T21:31:17.158Z,1.80
2022-11-19T21:33:43.767Z,1.80
2022-11-19T21:36:11.565Z,1.80
2022-11-19T21:38:38.383Z,1.80
2022-11-19T21:41:05.680Z,1.90
2022-11-19T21:43:32.825Z,1.90
2022-11-19T21:45:59.567Z,1.90
2022-11-19T21:48:27.029Z,1.80
2022-11-19T21:50:53.947Z,1.70
2022-11-19T21:53:20.917Z,1.70
2022-11-19T21:55:48.147Z,1.70
2022-11-19T21:58:15.812Z,1.70
2022-11-19T22:00:43.919Z,1.60
2022-11-19T22:03:10.716Z,1.60
2022-11-19T22:05:37.330Z,1.70
2022-11-19T22:08:04.118Z,1.70
2022-11-19T22:10:31.091Z,1.80
2022-11-19T22:12:58.773Z,1.80
2022-11-19T22:15:26.897Z,1.70
2022-11-19T22:17:53.823Z,1.60
2022-11-19T22:20:20.598Z,1.60
2022-11-19T22:22:47.414Z,1.60
2022-11-19T22:25:14.343Z,1.50
2022-11-19T22:27:41.835Z,1.60
2022-11-19T22:30:10.150Z,1.70
2022-11-19T22:32:37.114Z,1.80
2022-11-19T22:35:04.748Z,1.80
2022-11-19T22:37:31.993Z,1.90
2022-11-19T22:39:58.837Z,1.90
2022-11-19T22:42:25.573Z,1.80
2022-11-19T22:44:52.984Z,1.70
2022-11-19T22:47:19.815Z,1.80
2022-11-19T22:49:46.635Z,1.90
2022-11-19T22:52:15.567Z,1.90
2022-11-19T22:54:42.253Z,1.90
2022-11-19T22:57:09.742Z,2.00
2022-11-19T22:59:36.599Z,2.00
2022-11-19T23:02:03.521Z,2.00
2022-11-19T23:04:30.170Z,2.00
2022-11-19T23:06:57.045Z,1.90
2022-11-19T23:09:23.985Z,1.90
2022-11-19T23:12:09.504Z,1.90
2022-11-19T23:14:36.244Z,1.80
2022-11-19T23:17:02.868Z,1.80
2022-11-19T23:19:29.541Z,1.80
2022-11-19T23:21:56.237Z,1.80
2022-11-19T23:24:22.922Z,1.80
2022-11-19T23:26:49.736Z,1.80
2022-11-19T23:29:16.387Z,1.80
2022-11-19T23:31:43.125Z,1.80
2022-11-19T23:34:09.970Z,1.70
2022-11-19T23:36:39.798Z,1.80
2022-11-19T23:39:10.225Z,1.80
2022-11-19T23:41:37.030Z,1.90
2022-11-19T23:44:04.112Z,1.90
2022-11-19T23:46:35.818Z,1.90
2022-11-19T23:49:03.801Z,1.90
2022-11-19T23:51:35.385Z,1.80
2022-11-19T23:54:02.539Z,1.90
2022-11-19T23:56:31.975Z,1.90
2022-11-19T23:59:06.111Z,2.00
